Terminal Aerodrome Forecast
Issued by NWS Mt. Holly, NJ

Home | Current Version | Previous Version | Text Only | Print | Product List | Glossary On
Versions: 1 2 3 4 5 6 7 8 9 10 11 12 13 14 15 16 17
000
FTUS41 KPHI 251604 AAB
TAFACY
TAF AMD
KACY 251604Z 2516/2612 06006KT P6SM SCT005
     FM251900 09009KT P6SM BKN005
     FM260400 09006KT 5SM BR OVC003=

USA.gov is the U.S. government's official web portal to all federal, state and local government web resources and services.